Time;durP1;ratioP1;P1;durP2;ratioP2;P2;SDS_P1;SDS_P2;PMS_P1;PMS_P2;Temp;Humidity;BMP_temperature;BMP_pressure;BME280_temperature;BME280_humidity;BME280_pressure;Samples;Min_cycle;Max_cycle;Signal;HPM_P1;HPM_P2
2023/11/24 00:02:13;;;;;;;12.17;11.37;;;7.30;99.90;;;;;;4987882;28;20205;-77
2023/11/24 00:04:40;;;;;;;12.20;11.33;;;7.30;99.90;;;;;;5005960;28;20236;-78
2023/11/24 00:07:08;;;;;;;11.90;11.20;;;7.30;99.90;;;;;;4986158;28;20204;-78
2023/11/24 00:09:35;;;;;;;12.77;11.97;;;7.30;99.90;;;;;;5004122;28;20192;-79
2023/11/24 00:12:02;;;;;;;12.80;12.10;;;7.30;99.90;;;;;;5009245;28;20555;-79
2023/11/24 00:14:29;;;;;;;12.90;12.20;;;7.30;99.90;;;;;;4986189;28;20229;-78
2023/11/24 00:16:56;;;;;;;12.67;11.80;;;7.30;99.90;;;;;;5014243;28;20234;-78
2023/11/24 00:19:23;;;;;;;13.07;12.20;;;7.30;99.90;;;;;;4985531;28;20232;-79
2023/11/24 00:21:51;;;;;;;12.30;11.60;;;7.30;99.90;;;;;;5000237;28;20205;-78
2023/11/24 00:24:20;;;;;;;13.10;12.30;;;7.30;99.90;;;;;;4987090;28;20228;-77
2023/11/24 00:26:46;;;;;;;12.40;11.70;;;7.30;99.90;;;;;;4988037;28;20586;-78
2023/11/24 00:29:13;;;;;;;12.47;11.77;;;7.30;99.90;;;;;;5003075;28;20243;-79
2023/11/24 00:31:40;;;;;;;12.40;11.70;;;7.30;99.90;;;;;;4984962;28;20209;-78
2023/11/24 00:34:07;;;;;;;13.03;12.33;;;7.40;99.90;;;;;;4982012;28;20232;-78
2023/11/24 00:36:35;;;;;;;12.70;11.90;;;7.40;99.90;;;;;;5002116;28;20197;-78
2023/11/24 00:39:04;;;;;;;12.63;11.93;;;7.40;99.90;;;;;;4986787;28;20291;-78
2023/11/24 00:41:33;;;;;;;12.57;11.87;;;7.40;99.90;;;;;;5005355;28;20227;-79
2023/11/24 00:44:01;;;;;;;12.60;11.90;;;7.40;99.90;;;;;;5005186;28;20799;-78
2023/11/24 00:46:29;;;;;;;12.70;12.00;;;7.50;99.90;;;;;;4998650;28;20197;-78
2023/11/24 00:48:56;;;;;;;12.57;11.87;;;7.50;99.90;;;;;;4983344;28;20208;-78
2023/11/24 00:51:24;;;;;;;11.70;11.00;;;7.60;99.90;;;;;;5000726;28;20227;-79
2023/11/24 00:53:53;;;;;;;11.70;11.00;;;7.60;99.90;;;;;;4984297;28;20225;-76
2023/11/24 00:56:19;;;;;;;11.37;10.67;;;7.70;99.90;;;;;;4987678;28;20552;-78
2023/11/24 00:58:50;;;;;;;11.70;11.00;;;7.70;99.90;;;;;;4986717;28;20201;-78
2023/11/24 01:01:18;;;;;;;11.57;10.90;;;7.70;99.90;;;;;;4987237;28;20229;-79
2023/11/24 01:03:45;;;;;;;11.60;10.90;;;7.80;99.90;;;;;;4981425;28;20271;-78
2023/11/24 01:06:13;;;;;;;11.63;11.03;;;7.80;99.90;;;;;;4985184;28;20209;-78
2023/11/24 01:08:40;;;;;;;11.60;10.90;;;7.80;99.90;;;;;;4981011;28;20202;-78
2023/11/24 01:11:07;;;;;;;11.70;11.00;;;7.80;99.90;;;;;;4988886;28;20595;-79
2023/11/24 01:13:36;;;;;;;12.00;11.20;;;7.90;99.90;;;;;;5016910;28;20200;-78
2023/11/24 01:16:05;;;;;;;11.13;10.40;;;7.90;99.90;;;;;;4996802;28;20201;-79
2023/11/24 01:18:33;;;;;;;11.37;10.67;;;7.90;99.90;;;;;;4995777;28;20200;-78
2023/11/24 01:21:01;;;;;;;11.60;10.80;;;7.90;99.90;;;;;;4989857;28;20239;-79
2023/11/24 01:23:28;;;;;;;11.10;10.50;;;7.90;99.90;;;;;;5002857;28;20279;-79
2023/11/24 01:25:55;;;;;;;10.80;10.20;;;7.90;99.90;;;;;;4985952;28;20230;-78
2023/11/24 01:28:23;;;;;;;11.33;10.63;;;7.90;99.90;;;;;;5003683;28;20203;-78
2023/11/24 01:30:50;;;;;;;11.10;10.50;;;7.90;99.90;;;;;;4983645;28;20201;-78
2023/11/24 01:33:18;;;;;;;11.50;10.80;;;7.90;99.90;;;;;;4987587;28;20555;-78
2023/11/24 01:35:45;;;;;;;10.97;10.37;;;7.90;99.90;;;;;;4998355;28;20675;-78
2023/11/24 01:38:12;;;;;;;11.50;10.80;;;7.90;99.90;;;;;;5004530;28;20288;-78
2023/11/24 01:40:40;;;;;;;11.63;10.97;;;8.00;99.90;;;;;;4988165;28;20251;-78
2023/11/24 01:43:08;;;;;;;11.87;11.03;;;8.00;99.90;;;;;;4981169;28;20227;-79
2023/11/24 01:45:34;;;;;;;11.33;10.73;;;8.00;99.90;;;;;;4980667;28;20252;-78
2023/11/24 01:48:01;;;;;;;11.80;11.00;;;7.90;99.90;;;;;;4986466;28;20620;-79
2023/11/24 01:50:30;;;;;;;11.40;10.80;;;7.90;99.90;;;;;;4980127;28;20742;-79
2023/11/24 01:52:58;;;;;;;11.60;10.90;;;7.90;99.90;;;;;;4981972;28;20201;-79
2023/11/24 01:55:26;;;;;;;11.57;10.87;;;7.90;99.90;;;;;;5004160;28;20279;-78
2023/11/24 01:57:53;;;;;;;11.60;10.90;;;7.90;99.90;;;;;;4986739;28;20205;-78
2023/11/24 02:00:20;;;;;;;11.87;11.07;;;7.90;99.90;;;;;;5006636;28;20216;-79
2023/11/24 02:02:47;;;;;;;12.20;11.40;;;7.90;99.90;;;;;;5010078;28;20208;-79
2023/11/24 02:05:14;;;;;;;11.97;11.27;;;7.90;99.90;;;;;;4996763;28;20236;-79
2023/11/24 02:07:43;;;;;;;11.63;10.90;;;7.80;99.90;;;;;;4990370;28;20235;-79
2023/11/24 02:10:12;;;;;;;11.53;10.83;;;7.90;99.90;;;;;;5007065;28;20195;-79
2023/11/24 02:12:39;;;;;;;11.53;10.83;;;7.80;99.90;;;;;;4992019;28;20220;-79
2023/11/24 02:15:08;;;;;;;11.47;10.67;;;7.80;99.90;;;;;;4995160;28;20220;-78
2023/11/24 02:17:36;;;;;;;10.97;10.27;;;7.80;99.90;;;;;;4989162;28;20283;-79
2023/11/24 02:20:08;;;;;;;10.80;10.20;;;7.70;99.90;;;;;;5009023;28;20251;-78
2023/11/24 02:22:39;;;;;;;10.90;10.30;;;7.70;99.90;;;;;;4983704;28;20223;-78
2023/11/24 02:25:07;;;;;;;10.97;10.37;;;7.60;99.90;;;;;;4984211;28;20239;-77
2023/11/24 02:27:34;;;;;;;10.90;10.30;;;7.60;99.90;;;;;;4989378;28;20201;-78
2023/11/24 02:30:01;;;;;;;10.90;10.20;;;7.60;99.90;;;;;;4984736;28;20244;-78
2023/11/24 02:32:28;;;;;;;10.90;10.30;;;7.60;99.90;;;;;;4986713;28;20197;-79
2023/11/24 02:34:55;;;;;;;11.30;10.60;;;7.50;99.90;;;;;;4986077;28;20304;-78
2023/11/24 02:37:22;;;;;;;11.10;10.30;;;7.50;99.90;;;;;;4983454;28;20209;-78
2023/11/24 02:39:50;;;;;;;11.07;10.40;;;7.50;99.90;;;;;;5009025;28;20193;-79
2023/11/24 02:42:17;;;;;;;11.10;10.50;;;7.50;99.90;;;;;;4984006;28;20699;-78
2023/11/24 02:44:44;;;;;;;11.63;10.73;;;7.50;99.90;;;;;;4983356;28;20703;-78
2023/11/24 02:47:11;;;;;;;10.87;10.27;;;7.40;99.90;;;;;;5009062;28;20207;-78
2023/11/24 02:49:39;;;;;;;11.00;10.40;;;7.50;99.90;;;;;;4996187;28;20219;-77
2023/11/24 02:52:07;;;;;;;10.90;10.30;;;7.40;99.90;;;;;;4991237;28;20200;-77
2023/11/24 02:54:34;;;;;;;11.17;10.47;;;7.40;99.90;;;;;;4983318;28;20216;-79
2023/11/24 02:57:03;;;;;;;11.13;10.40;;;7.40;99.90;;;;;;4987081;28;20579;-78
2023/11/24 02:59:30;;;;;;;11.20;10.40;;;7.40;99.90;;;;;;4984994;28;20656;-79
2023/11/24 03:01:57;;;;;;;11.50;10.80;;;7.40;99.90;;;;;;4985763;28;20233;-78
2023/11/24 03:04:23;;;;;;;11.43;10.73;;;7.40;99.90;;;;;;4982571;28;20233;-78
2023/11/24 03:06:52;;;;;;;11.87;11.17;;;7.40;99.90;;;;;;4982985;28;20218;-78
2023/11/24 03:09:22;;;;;;;11.27;10.60;;;7.40;99.90;;;;;;4984407;28;20193;-78
2023/11/24 03:11:49;;;;;;;11.20;10.60;;;7.40;99.90;;;;;;5008255;28;20675;-77
2023/11/24 03:14:20;;;;;;;11.37;10.70;;;7.40;99.90;;;;;;4992192;28;20220;-79
2023/11/24 03:16:47;;;;;;;11.27;10.67;;;7.40;99.90;;;;;;5007119;28;20634;-78
2023/11/24 03:19:14;;;;;;;11.90;11.20;;;7.40;99.90;;;;;;4985124;28;20219;-77
2023/11/24 03:21:41;;;;;;;11.07;10.40;;;7.40;99.90;;;;;;4987641;28;20262;-78
2023/11/24 03:24:08;;;;;;;10.63;10.03;;;7.40;99.90;;;;;;4982395;28;20232;-77
2023/11/24 03:26:36;;;;;;;10.70;10.10;;;7.40;99.90;;;;;;4981854;28;20256;-78
2023/11/24 03:29:03;;;;;;;11.80;11.10;;;7.40;99.90;;;;;;4987441;28;20216;-78
2023/11/24 03:31:31;;;;;;;11.80;11.10;;;7.40;99.90;;;;;;4981904;28;20232;-79
2023/11/24 03:33:58;;;;;;;10.90;10.30;;;7.40;99.90;;;;;;4987667;28;20254;-78
2023/11/24 03:36:26;;;;;;;11.20;10.50;;;7.40;99.90;;;;;;4985242;28;20293;-77
2023/11/24 03:38:53;;;;;;;11.40;10.70;;;7.40;99.90;;;;;;4984692;28;20291;-78
2023/11/24 03:41:20;;;;;;;11.20;10.60;;;7.40;99.90;;;;;;4980990;28;20312;-80
2023/11/24 03:43:47;;;;;;;11.20;10.60;;;7.40;99.90;;;;;;5007197;28;20256;-78
2023/11/24 03:46:14;;;;;;;12.10;11.37;;;7.40;99.90;;;;;;4985260;28;20217;-78
2023/11/24 03:48:43;;;;;;;11.73;11.07;;;7.40;99.90;;;;;;4987667;28;20200;-79
2023/11/24 03:51:08;;;;;;;11.70;11.10;;;7.40;99.90;;;;;;4988581;28;20574;-77
2023/11/24 03:53:35;;;;;;;13.20;12.40;;;7.40;99.90;;;;;;4979496;28;20189;-78
2023/11/24 03:56:04;;;;;;;12.80;12.10;;;7.40;99.90;;;;;;4979781;28;20233;-80
2023/11/24 03:58:31;;;;;;;12.60;11.80;;;7.40;99.90;;;;;;5013493;28;20671;-80
2023/11/24 04:00:58;;;;;;;13.27;12.47;;;7.40;99.90;;;;;;4997848;28;20571;-79
2023/11/24 04:03:25;;;;;;;12.50;11.80;;;7.40;99.90;;;;;;4989900;28;20196;-80
2023/11/24 04:05:53;;;;;;;12.90;12.20;;;7.40;99.90;;;;;;4991433;28;20204;-79
2023/11/24 04:08:20;;;;;;;11.50;10.90;;;7.40;99.90;;;;;;5010074;28;20197;-79
2023/11/24 04:10:46;;;;;;;11.63;11.03;;;7.30;99.90;;;;;;5001437;28;20725;-80
2023/11/24 04:13:13;;;;;;;11.73;11.13;;;7.30;99.90;;;;;;5004055;28;20211;-81
2023/11/24 04:15:40;;;;;;;13.17;12.47;;;7.40;99.90;;;;;;4981663;28;20228;-80
2023/11/24 04:18:07;;;;;;;11.90;11.30;;;7.40;99.90;;;;;;4987992;28;20275;-80
2023/11/24 04:20:34;;;;;;;12.20;11.50;;;7.40;99.90;;;;;;4997048;28;20219;-79
2023/11/24 04:23:02;;;;;;;12.47;11.67;;;7.40;99.90;;;;;;4985560;28;20683;-78
2023/11/24 04:25:29;;;;;;;12.80;11.90;;;7.40;99.90;;;;;;4997965;28;20212;-79
2023/11/24 04:27:55;;;;;;;12.17;11.47;;;7.40;99.90;;;;;;4997644;28;20200;-79
2023/11/24 04:30:22;;;;;;;13.17;12.47;;;7.40;99.90;;;;;;4982640;28;20586;-79
2023/11/24 04:32:49;;;;;;;12.27;11.57;;;7.40;99.90;;;;;;5007844;28;20205;-79
2023/11/24 04:35:23;;;;;;;12.50;11.80;;;7.40;99.90;;;;;;5005574;28;20302;-81
2023/11/24 04:37:52;;;;;;;13.13;12.43;;;7.40;99.90;;;;;;4999845;28;20299;-80
2023/11/24 04:40:21;;;;;;;12.80;12.10;;;7.40;99.90;;;;;;4991978;28;20201;-80
2023/11/24 04:42:47;;;;;;;13.13;12.33;;;7.40;99.90;;;;;;4992549;28;20221;-80
2023/11/24 04:45:14;;;;;;;13.40;12.70;;;7.30;99.90;;;;;;4993593;28;20251;-79
2023/11/24 04:47:41;;;;;;;12.70;12.00;;;7.40;99.90;;;;;;4988842;28;20201;-78
2023/11/24 04:50:09;;;;;;;13.10;12.40;;;7.40;99.90;;;;;;5014257;28;20200;-80
2023/11/24 04:52:36;;;;;;;13.10;12.40;;;7.30;99.90;;;;;;4999318;28;20193;-79
2023/11/24 04:55:03;;;;;;;12.60;11.90;;;7.40;99.90;;;;;;4981184;28;20217;-80
2023/11/24 04:57:33;;;;;;;13.10;12.40;;;7.40;99.90;;;;;;4991018;28;20655;-79
2023/11/24 05:00:00;;;;;;;13.03;12.33;;;7.30;99.90;;;;;;4991456;28;20669;-78
2023/11/24 05:02:27;;;;;;;13.40;12.70;;;7.30;99.90;;;;;;4979817;28;20233;-77
2023/11/24 05:04:55;;;;;;;13.50;12.80;;;7.30;99.90;;;;;;4983519;28;20229;-78
2023/11/24 05:07:23;;;;;;;13.27;12.57;;;7.30;99.90;;;;;;5006001;28;20200;-77
2023/11/24 05:09:50;;;;;;;13.43;12.73;;;7.30;99.90;;;;;;4983242;28;20207;-77
2023/11/24 05:12:17;;;;;;;14.30;13.50;;;7.30;99.90;;;;;;4998638;28;20200;-79
2023/11/24 05:14:45;;;;;;;14.07;13.37;;;7.30;99.90;;;;;;4985806;28;20221;-79
2023/11/24 05:17:12;;;;;;;13.30;12.60;;;7.30;99.90;;;;;;5005849;28;20192;-79
2023/11/24 05:19:39;;;;;;;13.77;13.07;;;7.30;99.90;;;;;;4998373;28;20200;-79
2023/11/24 05:22:06;;;;;;;13.40;12.70;;;7.40;99.90;;;;;;5005353;28;20583;-79
2023/11/24 05:24:33;;;;;;;14.10;13.40;;;7.40;99.90;;;;;;4997423;28;20209;-78
2023/11/24 05:27:00;;;;;;;14.50;13.80;;;7.40;99.90;;;;;;5002784;28;20224;-78
2023/11/24 05:29:27;;;;;;;13.80;13.10;;;7.40;99.90;;;;;;4979772;28;20247;-79
2023/11/24 05:31:55;;;;;;;13.93;13.23;;;7.40;99.90;;;;;;5010052;28;20608;-79
2023/11/24 05:34:24;;;;;;;13.87;13.17;;;7.40;99.90;;;;;;5007701;28;20220;-79
2023/11/24 05:36:51;;;;;;;13.97;13.23;;;7.40;99.90;;;;;;5003780;28;20227;-78
2023/11/24 05:39:18;;;;;;;13.80;13.10;;;7.40;99.90;;;;;;4981748;28;20600;-79
2023/11/24 05:41:45;;;;;;;13.70;13.00;;;7.40;99.90;;;;;;4984180;28;20237;-78
2023/11/24 05:44:12;;;;;;;13.43;12.73;;;7.40;99.90;;;;;;5002657;28;20229;-78
2023/11/24 05:46:39;;;;;;;14.13;13.23;;;7.40;99.90;;;;;;5000222;28;20201;-79
2023/11/24 05:49:07;;;;;;;13.43;12.73;;;7.40;99.90;;;;;;4979206;28;20292;-79
2023/11/24 05:51:34;;;;;;;13.67;12.97;;;7.40;99.90;;;;;;4979269;28;20193;-79
2023/11/24 05:54:00;;;;;;;13.80;13.10;;;7.40;99.90;;;;;;4983028;28;20220;-79
2023/11/24 05:56:27;;;;;;;13.60;12.90;;;7.40;99.90;;;;;;4980463;28;20212;-78
2023/11/24 05:58:54;;;;;;;13.70;13.00;;;7.40;99.90;;;;;;5001471;28;20193;-78
2023/11/24 06:01:21;;;;;;;13.90;13.20;;;7.40;99.90;;;;;;5011547;28;20216;-78
2023/11/24 06:03:48;;;;;;;13.70;13.00;;;7.40;99.90;;;;;;5004120;28;20217;-78
2023/11/24 06:06:16;;;;;;;13.20;12.50;;;7.40;99.90;;;;;;4980148;28;20672;-78
2023/11/24 06:08:42;;;;;;;14.00;13.30;;;7.50;99.90;;;;;;4979567;28;20260;-78
2023/11/24 06:11:09;;;;;;;13.93;13.23;;;7.50;99.90;;;;;;5001482;28;20200;-78
2023/11/24 06:13:36;;;;;;;13.40;12.70;;;7.50;99.90;;;;;;4980152;28;20205;-78
2023/11/24 06:16:03;;;;;;;13.20;12.50;;;7.50;99.90;;;;;;4983462;28;20201;-79
2023/11/24 06:18:30;;;;;;;13.30;12.60;;;7.50;99.90;;;;;;4979797;28;20215;-77
2023/11/24 06:20:57;;;;;;;13.40;12.70;;;7.50;99.90;;;;;;4979038;28;20671;-79
2023/11/24 06:23:25;;;;;;;13.40;12.70;;;7.50;99.90;;;;;;5004358;28;20200;-78
2023/11/24 06:25:52;;;;;;;13.87;13.07;;;7.30;99.90;;;;;;5009781;28;20203;-78
2023/11/24 06:28:19;;;;;;;14.17;13.37;;;7.20;99.90;;;;;;5002211;28;20198;-79
2023/11/24 06:30:46;;;;;;;14.30;13.40;;;7.00;99.90;;;;;;4981911;28;20238;-78
2023/11/24 06:33:13;;;;;;;15.13;14.23;;;7.00;99.90;;;;;;5000327;28;20200;-78
2023/11/24 06:35:40;;;;;;;14.40;13.50;;;6.90;99.90;;;;;;5000476;28;20330;-78
2023/11/24 06:38:07;;;;;;;14.70;13.80;;;6.80;99.90;;;;;;4978589;28;20201;-78
2023/11/24 06:40:35;;;;;;;14.40;13.50;;;6.70;99.90;;;;;;4978545;28;20209;-79
2023/11/24 06:43:02;;;;;;;14.93;13.93;;;6.70;99.90;;;;;;5002521;28;20215;-78
2023/11/24 06:45:29;;;;;;;14.73;13.93;;;6.60;99.90;;;;;;4987774;28;20736;-79
2023/11/24 06:47:56;;;;;;;15.90;14.90;;;6.60;99.90;;;;;;4999700;28;20436;-78
2023/11/24 06:50:23;;;;;;;16.70;15.63;;;6.50;99.90;;;;;;4982641;28;20666;-77
2023/11/24 06:52:49;;;;;;;15.80;14.80;;;6.50;99.90;;;;;;4992569;28;20692;-79
2023/11/24 06:55:16;;;;;;;15.60;14.80;;;6.50;99.90;;;;;;4992309;28;20232;-85
2023/11/24 06:57:45;;;;;;;15.73;14.93;;;6.50;99.90;;;;;;4995766;28;20261;-82
2023/11/24 07:00:17;;;;;;;17.13;16.00;;;6.50;99.90;;;;;;4980768;28;20307;-82
2023/11/24 07:02:44;;;;;;;17.00;16.00;;;6.40;99.90;;;;;;5001386;28;20546;-82
2023/11/24 07:05:11;;;;;;;17.33;16.33;;;6.40;99.90;;;;;;5002226;28;20720;-82
2023/11/24 07:07:38;;;;;;;17.20;16.30;;;6.40;99.90;;;;;;4981514;28;20267;-80
2023/11/24 07:10:07;;;;;;;17.53;16.43;;;6.30;99.90;;;;;;4984420;28;20648;-80
2023/11/24 07:12:34;;;;;;;15.97;15.17;;;6.40;99.90;;;;;;4989301;28;20213;-79
2023/11/24 07:15:03;;;;;;;16.50;15.60;;;6.40;99.90;;;;;;5010853;28;20220;-79
2023/11/24 07:17:31;;;;;;;15.97;15.10;;;6.50;99.90;;;;;;5002248;28;20655;-79
2023/11/24 07:19:58;;;;;;;16.10;15.07;;;6.40;99.90;;;;;;4984327;28;20203;-80
2023/11/24 07:22:27;;;;;;;16.07;15.17;;;6.50;99.90;;;;;;4996943;28;20230;-78
2023/11/24 07:24:55;;;;;;;16.17;15.27;;;6.50;99.90;;;;;;5000337;28;20228;-77
2023/11/24 07:27:22;;;;;;;16.30;15.40;;;6.50;99.90;;;;;;5006638;28;20206;-78
2023/11/24 07:29:48;;;;;;;15.47;14.67;;;6.50;99.90;;;;;;4999472;28;20577;-77
2023/11/24 07:32:17;;;;;;;16.10;15.20;;;6.50;99.90;;;;;;4982768;28;20582;-78
2023/11/24 07:34:44;;;;;;;15.53;14.73;;;6.50;99.90;;;;;;5004157;28;20225;-78
2023/11/24 07:37:11;;;;;;;16.90;15.83;;;6.50;99.90;;;;;;5006567;28;20198;-78
2023/11/24 07:39:38;;;;;;;16.60;15.70;;;6.50;99.90;;;;;;5003535;28;20227;-78
2023/11/24 07:42:05;;;;;;;15.80;15.00;;;6.50;99.90;;;;;;4997484;28;20220;-78
2023/11/24 07:44:33;;;;;;;15.80;14.90;;;6.50;99.90;;;;;;4983313;28;20706;-77
2023/11/24 07:47:00;;;;;;;16.30;15.40;;;6.50;99.90;;;;;;4987355;28;20203;-78
2023/11/24 07:49:28;;;;;;;16.73;15.77;;;6.50;99.90;;;;;;4987710;28;20218;-78
2023/11/24 07:51:55;;;;;;;16.63;15.73;;;6.50;99.90;;;;;;5005444;28;20239;-78
2023/11/24 07:54:23;;;;;;;17.00;15.80;;;6.50;99.90;;;;;;5005258;28;20285;-78
2023/11/24 07:56:50;;;;;;;17.60;16.30;;;6.50;99.90;;;;;;5003831;28;20281;-78
2023/11/24 07:59:16;;;;;;;16.80;15.70;;;6.50;99.90;;;;;;5006913;28;20244;-77
2023/11/24 08:01:45;;;;;;;16.67;15.67;;;6.50;99.90;;;;;;5004580;28;20231;-78
2023/11/24 08:04:12;;;;;;;16.80;15.53;;;6.60;99.90;;;;;;4980948;28;20300;-78
2023/11/24 08:06:40;;;;;;;16.37;15.40;;;6.60;99.90;;;;;;4981240;28;20203;-78
2023/11/24 08:09:08;;;;;;;15.97;15.07;;;6.70;99.90;;;;;;4987712;28;20666;-78
2023/11/24 08:11:35;;;;;;;16.37;15.27;;;6.70;99.90;;;;;;4986041;28;20203;-81
2023/11/24 08:14:01;;;;;;;16.37;15.37;;;6.80;99.90;;;;;;4998947;28;20266;-82
2023/11/24 08:16:28;;;;;;;15.53;14.60;;;6.80;99.90;;;;;;4981788;28;20254;-81
2023/11/24 08:18:55;;;;;;;16.40;15.50;;;6.90;99.90;;;;;;5005105;28;20738;-79
2023/11/24 08:21:23;;;;;;;15.80;14.90;;;6.90;99.90;;;;;;4995963;28;20215;-79
2023/11/24 08:23:51;;;;;;;15.87;14.97;;;6.90;99.90;;;;;;4983821;28;20220;-79
2023/11/24 08:26:19;;;;;;;16.30;15.30;;;6.90;99.90;;;;;;4993055;28;20213;-79
2023/11/24 08:28:46;;;;;;;16.67;15.60;;;7.00;99.90;;;;;;5004209;28;20201;-79
2023/11/24 08:31:17;;;;;;;16.10;15.30;;;7.00;99.90;;;;;;5001833;28;20207;-79
2023/11/24 08:33:44;;;;;;;16.07;15.17;;;7.00;99.90;;;;;;4995568;28;20319;-79
2023/11/24 08:36:12;;;;;;;16.43;15.60;;;7.00;99.90;;;;;;5012674;28;20223;-80
2023/11/24 08:38:40;;;;;;;16.20;15.10;;;7.00;99.90;;;;;;4998333;28;20207;-80
2023/11/24 08:41:13;;;;;;;16.17;15.13;;;7.00;99.90;;;;;;4997716;28;20208;-79
2023/11/24 08:43:40;;;;;;;15.93;14.93;;;7.10;99.90;;;;;;4986633;28;20237;-79
2023/11/24 08:46:09;;;;;;;15.97;14.73;;;7.10;99.90;;;;;;5003931;28;20204;-78
2023/11/24 08:48:36;;;;;;;14.90;14.10;;;7.10;99.90;;;;;;5009881;28;20200;-79
2023/11/24 08:51:04;;;;;;;15.07;14.27;;;7.20;99.90;;;;;;5017195;28;20200;-79
2023/11/24 08:53:33;;;;;;;14.90;14.10;;;7.20;99.90;;;;;;5007249;28;20209;-79
2023/11/24 08:56:00;;;;;;;15.70;14.60;;;7.30;99.90;;;;;;5015550;28;20666;-79
2023/11/24 08:58:28;;;;;;;14.70;13.90;;;7.30;99.90;;;;;;5007024;28;20196;-79
2023/11/24 09:00:55;;;;;;;14.20;13.30;;;7.30;99.90;;;;;;5000240;28;20193;-80
2023/11/24 09:03:24;;;;;;;14.00;13.30;;;7.30;99.90;;;;;;5002172;28;20220;-79
2023/11/24 09:05:56;;;;;;;13.63;12.73;;;7.30;99.90;;;;;;5011055;28;20592;-79
2023/11/24 09:08:23;;;;;;;13.73;12.83;;;7.30;99.90;;;;;;4998834;28;20291;-79
2023/11/24 09:10:51;;;;;;;14.10;13.00;;;7.30;99.90;;;;;;5013611;28;20707;-79
2023/11/24 09:13:19;;;;;;;14.40;13.40;;;7.30;99.90;;;;;;4982828;28;20201;-79
2023/11/24 09:15:48;;;;;;;14.03;13.23;;;7.30;99.90;;;;;;5022282;28;20212;-79
2023/11/24 09:18:15;;;;;;;14.40;13.50;;;7.30;99.90;;;;;;4985310;28;20636;-79
2023/11/24 09:20:42;;;;;;;14.20;13.30;;;7.30;99.90;;;;;;5019484;28;20200;-79
2023/11/24 09:23:09;;;;;;;14.40;13.60;;;7.30;99.90;;;;;;5016027;28;20217;-80
2023/11/24 09:25:36;;;;;;;14.27;13.37;;;7.30;99.90;;;;;;4990652;28;20228;-80
2023/11/24 09:28:04;;;;;;;14.80;13.80;;;7.30;99.90;;;;;;4995344;28;20200;-80
2023/11/24 09:30:31;;;;;;;14.43;13.43;;;7.30;99.90;;;;;;4992808;28;20232;-80
2023/11/24 09:33:00;;;;;;;14.20;13.20;;;7.30;99.90;;;;;;5008021;28;20193;-80
2023/11/24 09:35:26;;;;;;;14.40;13.30;;;7.20;99.90;;;;;;4983991;28;20218;-80
2023/11/24 09:37:54;;;;;;;14.67;13.57;;;7.30;99.90;;;;;;4993722;28;20699;-81
2023/11/24 09:40:22;;;;;;;14.70;13.70;;;7.20;99.90;;;;;;5001434;28;20544;-81
2023/11/24 09:42:50;;;;;;;14.60;13.50;;;7.20;99.90;;;;;;5003029;28;20241;-80
2023/11/24 09:45:19;;;;;;;14.30;13.40;;;7.30;99.90;;;;;;5013727;28;20275;-80
2023/11/24 09:47:49;;;;;;;15.47;14.47;;;7.40;99.90;;;;;;4981853;28;20200;-80
2023/11/24 09:50:23;;;;;;;15.10;14.00;;;7.50;99.90;;;;;;5013105;28;20632;-81
2023/11/24 09:52:51;;;;;;;14.97;13.87;;;7.50;99.90;;;;;;4983750;28;20671;-80
2023/11/24 09:55:18;;;;;;;14.60;13.60;;;7.50;99.90;;;;;;5007300;28;20220;-81
2023/11/24 09:57:45;;;;;;;14.70;13.57;;;7.50;99.90;;;;;;5013423;28;20232;-82
2023/11/24 10:00:15;;;;;;;14.80;13.70;;;7.50;99.90;;;;;;4992722;28;20348;-81
2023/11/24 10:02:42;;;;;;;15.50;14.30;;;7.60;99.90;;;;;;4990355;28;20216;-81
2023/11/24 10:05:17;;;;;;;14.70;13.77;;;7.60;99.90;;;;;;4980354;28;20225;-81
2023/11/24 10:07:47;;;;;;;15.10;14.03;;;7.70;99.90;;;;;;4984839;28;20206;-80
2023/11/24 10:10:22;;;;;;;15.57;14.33;;;7.70;99.90;;;;;;5007516;28;20235;-81
2023/11/24 10:12:50;;;;;;;15.43;14.37;;;7.70;99.90;;;;;;4978747;28;20204;-81
2023/11/24 10:15:17;;;;;;;15.20;14.27;;;7.70;99.90;;;;;;5002639;28;20783;-81
2023/11/24 10:17:46;;;;;;;15.63;14.63;;;7.80;99.90;;;;;;4989500;28;20204;-81
2023/11/24 10:20:13;;;;;;;15.97;14.60;;;7.80;99.90;;;;;;5008954;28;20201;-79
2023/11/24 10:22:40;;;;;;;16.00;14.60;;;7.80;99.90;;;;;;5004613;28;20217;-79
2023/11/24 10:25:11;;;;;;;15.40;14.40;;;7.90;99.90;;;;;;5017224;28;20212;-79
2023/11/24 10:27:41;;;;;;;15.43;14.43;;;7.90;99.90;;;;;;4999332;28;20204;-79
2023/11/24 10:30:09;;;;;;;15.70;14.60;;;8.00;99.90;;;;;;5022449;28;20430;-79
2023/11/24 10:32:35;;;;;;;14.93;14.03;;;8.10;99.90;;;;;;5012351;28;20193;-78
2023/11/24 10:35:03;;;;;;;16.30;14.97;;;8.10;99.90;;;;;;4997867;28;20247;-79
2023/11/24 10:37:31;;;;;;;15.23;14.13;;;8.20;99.90;;;;;;4989144;28;20205;-79
2023/11/24 10:40:00;;;;;;;15.00;13.90;;;8.20;99.90;;;;;;5016703;28;20584;-80
2023/11/24 10:42:33;;;;;;;15.63;14.33;;;8.20;99.90;;;;;;4999263;28;20648;-82
2023/11/24 10:45:06;;;;;;;15.30;14.00;;;8.20;99.90;;;;;;5011262;28;20260;-84
2023/11/24 10:47:43;;;;;;;14.80;13.47;;;8.20;99.90;;;;;;4993631;28;20203;-81
2023/11/24 10:50:13;;;;;;;14.40;13.20;;;8.30;99.90;;;;;;5008182;28;20235;-83
2023/11/24 10:52:47;;;;;;;15.93;14.87;;;8.30;99.90;;;;;;4999628;28;20235;-82
2023/11/24 10:55:16;;;;;;;15.60;14.50;;;8.30;99.90;;;;;;5000937;28;20227;-83
2023/11/24 10:57:47;;;;;;;16.73;15.33;;;8.40;99.90;;;;;;5012462;28;20254;-82
2023/11/24 11:00:19;;;;;;;16.73;15.47;;;8.30;99.90;;;;;;5004738;28;20208;-82
2023/11/24 11:02:46;;;;;;;16.00;14.80;;;8.30;99.90;;;;;;4991086;28;20633;-81
2023/11/24 11:05:23;;;;;;;16.60;15.20;;;8.30;99.90;;;;;;5005133;28;20312;-83
2023/11/24 11:07:58;;;;;;;17.00;15.30;;;8.20;99.90;;;;;;4997106;28;20204;-81
2023/11/24 11:10:30;;;;;;;16.90;15.53;;;8.10;99.90;;;;;;5003127;28;20260;-82
2023/11/24 11:13:00;;;;;;;16.73;15.33;;;7.90;99.90;;;;;;5010639;28;20740;-82
2023/11/24 11:15:28;;;;;;;15.93;14.83;;;7.80;99.90;;;;;;4992771;28;20244;-81
2023/11/24 11:18:10;;;;;;;15.57;14.57;;;7.80;99.90;;;;;;4993821;28;20216;-82
2023/11/24 11:20:40;;;;;;;16.17;14.87;;;7.70;99.90;;;;;;5007293;28;20602;-81
2023/11/24 11:23:08;;;;;;;13.73;12.63;;;7.60;99.90;;;;;;4994402;28;20209;-81
2023/11/24 11:25:44;;;;;;;14.30;13.40;;;7.50;99.90;;;;;;5013132;28;20232;-78
2023/11/24 11:28:37;;;;;;;14.17;12.90;;;7.50;99.90;;;;;;5005836;28;20200;-78
2023/11/24 11:31:21;;;;;;;14.83;13.40;;;7.30;99.90;;;;;;5002982;28;20212;-77
2023/11/24 11:33:48;;;;;;;14.13;13.23;;;7.20;99.90;;;;;;5009903;28;20719;-78
2023/11/24 11:36:19;;;;;;;15.20;14.10;;;7.20;99.90;;;;;;5010226;28;20199;-78
2023/11/24 11:38:51;;;;;;;15.33;14.30;;;7.20;99.90;;;;;;5022047;28;20215;-79
2023/11/24 11:41:41;;;;;;;15.43;14.30;;;7.20;99.90;;;;;;5001008;28;20196;-79
2023/11/24 11:44:33;;;;;;;14.63;13.53;;;7.20;99.90;;;;;;5003510;28;20735;-79
2023/11/24 11:47:26;;;;;;;14.23;13.33;;;7.30;99.90;;;;;;5006216;28;20193;-79
2023/11/24 11:49:54;;;;;;;14.30;13.10;;;7.30;99.90;;;;;;4994451;28;20197;-78
2023/11/24 11:52:23;;;;;;;15.13;13.90;;;7.30;99.90;;;;;;4987768;28;20285;-79
2023/11/24 11:54:51;;;;;;;13.77;12.63;;;7.30;99.90;;;;;;4980111;28;20225;-78
2023/11/24 11:57:19;;;;;;;14.03;12.90;;;7.50;99.90;;;;;;4996212;28;20612;-79
2023/11/24 11:59:48;;;;;;;13.67;12.63;;;7.70;99.90;;;;;;5007007;28;20259;-79
2023/11/24 12:02:17;;;;;;;12.97;11.97;;;7.90;99.90;;;;;;5002374;28;20205;-79
2023/11/24 12:04:45;;;;;;;13.27;12.37;;;8.00;99.90;;;;;;4985991;28;20221;-79
2023/11/24 12:07:13;;;;;;;13.30;12.40;;;8.20;99.90;;;;;;5006011;28;20197;-78
2023/11/24 12:09:42;;;;;;;13.63;12.43;;;8.30;99.90;;;;;;5014882;28;20617;-78
2023/11/24 12:12:10;;;;;;;12.70;11.60;;;8.40;99.90;;;;;;4994556;28;20205;-79
2023/11/24 12:14:41;;;;;;;13.20;12.03;;;8.40;99.90;;;;;;5004990;28;20216;-78
2023/11/24 12:17:10;;;;;;;14.00;12.20;;;8.50;99.90;;;;;;4997895;28;20196;-79
2023/11/24 12:19:38;;;;;;;12.80;11.77;;;8.60;99.90;;;;;;4981822;28;20202;-79
2023/11/24 12:22:06;;;;;;;13.70;12.00;;;8.50;99.90;;;;;;4993258;28;20212;-78
2023/11/24 12:24:36;;;;;;;13.40;12.07;;;8.40;99.90;;;;;;4989045;28;20319;-79
2023/11/24 12:27:03;;;;;;;14.10;11.90;;;8.20;99.90;;;;;;5002031;28;20210;-82
2023/11/24 12:29:30;;;;;;;12.57;11.67;;;8.00;99.90;;;;;;4988472;28;20204;-81
2023/11/24 12:31:58;;;;;;;12.97;11.97;;;7.90;99.90;;;;;;4980524;28;20209;-83
2023/11/24 12:34:29;;;;;;;16.07;13.20;;;7.80;99.90;;;;;;4984220;28;20276;-79
2023/11/24 12:36:56;;;;;;;12.50;11.60;;;7.70;99.90;;;;;;4980704;28;20197;-79
2023/11/24 12:39:24;;;;;;;12.80;11.80;;;7.60;99.90;;;;;;4977031;28;20197;-79
2023/11/24 12:41:55;;;;;;;13.33;11.83;;;7.50;99.90;;;;;;5001335;28;20204;-82